Csl Melbourne — 8PWP — position and weather

sailwx.info

Track history (hours):
 
Tides and Currents Weather Stations Pressure Air Temp Water Temp Dewpoint Dewpoint Depression Visibility Wind Speed Wind Dir Waves Ship Positions

Csl Melbourne

Last reported at 2017-May-11 03:38 UTC. Time now 2017-Sep-24 16:08 UTC.
Position N 39°59' W 029°52'.
Warning: this ship's position is months out of date.

Length 187 m; draft 7.4 m.

Type: Ship. MMSI: 314317000.

Date/timePositionNaut miles runAvg speedWind from/ knotsBaromVisibWave heightAir tempDewpointWater temp
2017-May-11 03:38N 39°59' W 029°52'213.9
2017-May-11 03:30N 39°59' W 029°50'713.5
2017-May-11 03:00N 39°59' W 029°41'813.4
2017-May-11 02:23N 39°59' W 029°30'813.3
2017-May-11 01:48N 39°59' W 029°20'413.6
2017-May-11 01:30N 39°59' W 029°15'714.0
2017-May-11 01:00N 39°59' W 029°05'713.8
2017-May-11 00:30N 39°60' W 028°57'713.6
2017-May-11 00:00N 40°00' W 028°48'713.6
2017-May-10 23:30N 40°01' W 028°39'713.5
2017-May-10 23:00N 40°01' W 028°30'2113.5
2017-May-10 21:29N 40°02' W 028°03'  
2017-May-08 06:09N 36°54' W 011°46'213.3
2017-May-08 05:58N 36°53' W 011°43'713.7
2017-May-08 05:29N 36°50' W 011°35'713.7
2017-May-08 05:00N 36°48' W 011°27'713.9
2017-May-08 04:30N 36°46' W 011°19'713.9
2017-May-08 04:00N 36°44' W 011°11'6013.8
2017-May-07 23:39N 36°26' W 009°59'213.9
2017-May-07 23:30N 36°25' W 009°57'713.9
2017-May-07 23:01N 36°23' W 009°49'714.1
2017-May-07 22:31N 36°21' W 009°40'714.1
2017-May-07 21:59N 36°19' W 009°32'714.1
2017-May-07 21:30N 36°17' W 009°23'714.4
2017-May-07 21:01N 36°15' W 009°15'714.3
2017-May-07 20:31N 36°13' W 009°07'1414.1
2017-May-07 19:30N 36°11' W 008°49'714.0
2017-May-07 19:00N 36°10' W 008°41'713.9
2017-May-07 18:30N 36°09' W 008°32'14114.2
2017-May-07 08:36N 35°58' W 005°38'114.2
2017-May-07 08:30N 35°58' W 005°37'713.3
2017-May-07 08:00N 35°60' W 005°29'510.8
2017-May-07 07:30N 36°03' W 005°23'3 5.1
2017-May-07 06:58N 36°05' W 005°24'0 0.1
2017-May-07 06:28N 36°05' W 005°24'0 0.0
2017-May-07 05:58N 36°05' W 005°24'0 0.1
2017-May-07 05:25N 36°05' W 005°24'0 0.3
2017-May-07 04:58N 36°05' W 005°24'0 0.0
2017-May-07 04:25N 36°05' W 005°24'0 0.0
2017-May-07 03:58N 36°05' W 005°24'0 0.0
2017-May-07 03:28N 36°05' W 005°24'0 0.0
2017-May-07 02:58N 36°05' W 005°24'0 0.1
2017-May-07 02:28N 36°05' W 005°24'0 0.0
2017-May-07 01:55N 36°05' W 005°24'0 0.0
2017-May-07 01:28N 36°05' W 005°24'0 0.0
2017-May-07 00:58N 36°05' W 005°24'0 0.1
2017-May-07 00:28N 36°05' W 005°24'0 0.1
2017-May-06 23:56N 36°05' W 005°24'0 0.2
2017-May-06 23:28N 36°05' W 005°24'0 0.1
2017-May-06 22:58N 36°05' W 005°24'0 0.1
2017-May-06 22:22N 36°05' W 005°24'0 0.0
2017-May-06 21:58N 36°05' W 005°24'0 0.1
2017-May-06 21:28N 36°05' W 005°24'0 0.1
2017-May-06 20:58N 36°05' W 005°24'0 0.0
2017-May-06 20:28N 36°05' W 005°24'0 0.1
2017-May-06 19:49N 36°05' W 005°24'0 0.0
2017-May-06 19:28N 36°05' W 005°24'0 0.0
2017-May-06 18:58N 36°05' W 005°24'0 0.0
2017-May-06 18:25N 36°05' W 005°24'0 0.2
2017-May-06 17:55N 36°05' W 005°24'0 0.1
2017-May-06 17:28N 36°05' W 005°24'0 0.0
2017-May-06 15:28N 36°05' W 005°24'0 0.0
2017-May-06 14:55N 36°05' W 005°24'0 0.0
2017-May-06 14:28N 36°05' W 005°24'0 0.0
2017-May-06 13:30N 36°05' W 005°24'0 0.0
2017-May-06 13:00N 36°05' W 005°24'0 0.0
2017-May-06 12:30N 36°05' W 005°24'0 0.0
2017-May-06 12:00N 36°05' W 005°24'0 0.2
2017-May-06 11:30N 36°05' W 005°24'0 0.4
2017-May-06 11:00N 36°05' W 005°24'3 5.4
2017-May-06 10:30N 36°04' W 005°21'3 6.6
2017-May-06 10:00N 36°03' W 005°17'510.8
2017-May-06 09:30N 36°04' W 005°10'33113.0
2017-May-05 08:00N 37°12' E 001°33'714.3
2017-May-05 07:30N 37°14' E 001°41'815.1
2017-May-05 07:00N 37°16' E 001°51'815.5
2017-May-05 06:30N 37°18' E 002°00'815.3
2017-May-05 06:00N 37°19' E 002°10'815.4
2017-May-05 05:30N 37°21' E 002°19'815.3
2017-May-05 05:00N 37°23' E 002°28'915.1
2017-May-05 04:24N 37°25' E 002°39'614.9
2017-May-05 03:59N 37°27' E 002°47'714.8
2017-May-05 03:30N 37°29' E 002°56'1214.6
2017-May-05 02:42N 37°32' E 003°10'414.5
2017-May-05 02:24N 37°32' E 003°16'614.3
2017-May-05 02:00N 37°32' E 003°23'814.2
2017-May-05 01:27N 37°32' E 003°32'614.3
2017-May-05 01:00N 37°32' E 003°40'714.2
2017-May-05 00:30N 37°32' E 003°49'814.4
2017-May-04 23:59N 37°32' E 003°59'714.6
2017-May-04 23:30N 37°33' E 004°08'714.7
2017-May-04 23:00N 37°33' E 004°17'1114.7
2017-May-04 22:14N 37°33' E 004°31'314.7
2017-May-04 22:00N 37°33' E 004°36'914.7
2017-May-04 21:24N 37°33' E 004°47'614.5
2017-May-04 21:00N 37°33' E 004°54'2614.4
2017-May-04 19:11N 37°34' E 005°27'314.5
2017-May-04 19:00N 37°34' E 005°30'24514.4
2017-May-04 02:01N 37°39' E 010°40'014.8
2017-May-04 02:00N 37°39' E 010°40'1514.0
2017-May-04 00:57N 37°37' E 010°59'614.4
2017-May-04 00:30N 37°34' E 011°06'714.4
2017-May-04 00:00N 37°32' E 011°15'714.8
2017-May-03 23:30N 37°29' E 011°23'714.7
2017-May-03 23:00N 37°26' E 011°31'814.8
2017-May-03 22:30N 37°22' E 011°39'714.5
2017-May-03 22:00N 37°19' E 011°48'714.8
2017-May-03 21:30N 37°16' E 011°56'714.6
2017-May-03 21:00N 37°13' E 012°05'714.4
2017-May-03 20:30N 37°10' E 012°13'714.2
2017-May-03 20:00N 37°07' E 012°21'713.7
2017-May-03 19:30N 37°04' E 012°28'713.8
2017-May-03 19:01N 37°01' E 012°36'713.8
2017-May-03 18:30N 36°58' E 012°44'713.7
2017-May-03 18:00N 36°55' E 012°52'713.8
2017-May-03 17:30N 36°52' E 012°60'713.8
2017-May-03 17:00N 36°49' E 013°08'714.0
2017-May-03 16:30N 36°46' E 013°15'713.8
2017-May-03 16:00N 36°43' E 013°23'714.4
2017-May-03 15:30N 36°40' E 013°31'714.3
2017-May-03 15:01N 36°37' E 013°39'1414.0
2017-May-03 14:00N 36°32' E 013°55'713.9
2017-May-03 13:30N 36°30' E 014°04'714.0
2017-May-03 13:00N 36°29' E 014°12'713.7
2017-May-03 12:29N 36°29' E 014°21'713.7
2017-May-03 12:00N 36°29' E 014°29'713.7
2017-May-03 11:30N 36°28' E 014°38'714.0
2017-May-03 10:59N 36°27' E 014°47'713.8
2017-May-03 10:30N 36°27' E 014°55'813.8
2017-May-03 09:58N 36°27' E 015°04'  
Track history (hours):
 
Tides and Currents Weather Stations Pressure Air Temp Water Temp Dewpoint Dewpoint Depression Visibility Wind Speed Wind Dir Waves Ship Positions

Csl Melbourne

Last reported at 2017-May-11 03:38 UTC. Time now 2017-Sep-24 16:08 UTC.
Position N 39°59' W 029°52'.
Warning: this ship's position is months out of date.

Length 187 m; draft 7.4 m.

Type: Ship. MMSI: 314317000.

Date/timePositionNaut miles runAvg speedWind from/ knotsBaromVisibWave heightAir tempDewpointWater temp
2017-May-11 03:38N 39°59' W 029°52'213.9
2017-May-11 03:30N 39°59' W 029°50'713.5
2017-May-11 03:00N 39°59' W 029°41'813.4
2017-May-11 02:23N 39°59' W 029°30'813.3
2017-May-11 01:48N 39°59' W 029°20'413.6
2017-May-11 01:30N 39°59' W 029°15'714.0
2017-May-11 01:00N 39°59' W 029°05'713.8
2017-May-11 00:30N 39°60' W 028°57'713.6
2017-May-11 00:00N 40°00' W 028°48'713.6
2017-May-10 23:30N 40°01' W 028°39'713.5
2017-May-10 23:00N 40°01' W 028°30'2113.5
2017-May-10 21:29N 40°02' W 028°03'  
2017-May-08 06:09N 36°54' W 011°46'213.3
2017-May-08 05:58N 36°53' W 011°43'713.7
2017-May-08 05:29N 36°50' W 011°35'713.7
2017-May-08 05:00N 36°48' W 011°27'713.9
2017-May-08 04:30N 36°46' W 011°19'713.9
2017-May-08 04:00N 36°44' W 011°11'6013.8
2017-May-07 23:39N 36°26' W 009°59'213.9
2017-May-07 23:30N 36°25' W 009°57'713.9
2017-May-07 23:01N 36°23' W 009°49'714.1
2017-May-07 22:31N 36°21' W 009°40'714.1
2017-May-07 21:59N 36°19' W 009°32'714.1
2017-May-07 21:30N 36°17' W 009°23'714.4
2017-May-07 21:01N 36°15' W 009°15'714.3
2017-May-07 20:31N 36°13' W 009°07'1414.1
2017-May-07 19:30N 36°11' W 008°49'714.0
2017-May-07 19:00N 36°10' W 008°41'713.9
2017-May-07 18:30N 36°09' W 008°32'14114.2
2017-May-07 08:36N 35°58' W 005°38'114.2
2017-May-07 08:30N 35°58' W 005°37'713.3
2017-May-07 08:00N 35°60' W 005°29'510.8
2017-May-07 07:30N 36°03' W 005°23'3 5.1
2017-May-07 06:58N 36°05' W 005°24'0 0.1
2017-May-07 06:28N 36°05' W 005°24'0 0.0
2017-May-07 05:58N 36°05' W 005°24'0 0.1
2017-May-07 05:25N 36°05' W 005°24'0 0.3
2017-May-07 04:58N 36°05' W 005°24'0 0.0
2017-May-07 04:25N 36°05' W 005°24'0 0.0
2017-May-07 03:58N 36°05' W 005°24'0 0.0
2017-May-07 03:28N 36°05' W 005°24'0 0.0
2017-May-07 02:58N 36°05' W 005°24'0 0.1
2017-May-07 02:28N 36°05' W 005°24'0 0.0
2017-May-07 01:55N 36°05' W 005°24'0 0.0
2017-May-07 01:28N 36°05' W 005°24'0 0.0
2017-May-07 00:58N 36°05' W 005°24'0 0.1
2017-May-07 00:28N 36°05' W 005°24'0 0.1
2017-May-06 23:56N 36°05' W 005°24'0 0.2
2017-May-06 23:28N 36°05' W 005°24'0 0.1
2017-May-06 22:58N 36°05' W 005°24'0 0.1
2017-May-06 22:22N 36°05' W 005°24'0 0.0
2017-May-06 21:58N 36°05' W 005°24'0 0.1
2017-May-06 21:28N 36°05' W 005°24'0 0.1
2017-May-06 20:58N 36°05' W 005°24'0 0.0
2017-May-06 20:28N 36°05' W 005°24'0 0.1
2017-May-06 19:49N 36°05' W 005°24'0 0.0
2017-May-06 19:28N 36°05' W 005°24'0 0.0
2017-May-06 18:58N 36°05' W 005°24'0 0.0
2017-May-06 18:25N 36°05' W 005°24'0 0.2
2017-May-06 17:55N 36°05' W 005°24'0 0.1
2017-May-06 17:28N 36°05' W 005°24'0 0.0
2017-May-06 15:28N 36°05' W 005°24'0 0.0
2017-May-06 14:55N 36°05' W 005°24'0 0.0
2017-May-06 14:28N 36°05' W 005°24'0 0.0
2017-May-06 13:30N 36°05' W 005°24'0 0.0
2017-May-06 13:00N 36°05' W 005°24'0 0.0
2017-May-06 12:30N 36°05' W 005°24'0 0.0
2017-May-06 12:00N 36°05' W 005°24'0 0.2
2017-May-06 11:30N 36°05' W 005°24'0 0.4
2017-May-06 11:00N 36°05' W 005°24'3 5.4
2017-May-06 10:30N 36°04' W 005°21'3 6.6
2017-May-06 10:00N 36°03' W 005°17'510.8
2017-May-06 09:30N 36°04' W 005°10'33113.0
2017-May-05 08:00N 37°12' E 001°33'714.3
2017-May-05 07:30N 37°14' E 001°41'815.1
2017-May-05 07:00N 37°16' E 001°51'815.5
2017-May-05 06:30N 37°18' E 002°00'815.3
2017-May-05 06:00N 37°19' E 002°10'815.4
2017-May-05 05:30N 37°21' E 002°19'815.3
2017-May-05 05:00N 37°23' E 002°28'915.1
2017-May-05 04:24N 37°25' E 002°39'614.9
2017-May-05 03:59N 37°27' E 002°47'714.8
2017-May-05 03:30N 37°29' E 002°56'1214.6
2017-May-05 02:42N 37°32' E 003°10'414.5
2017-May-05 02:24N 37°32' E 003°16'614.3
2017-May-05 02:00N 37°32' E 003°23'814.2
2017-May-05 01:27N 37°32' E 003°32'614.3
2017-May-05 01:00N 37°32' E 003°40'714.2
2017-May-05 00:30N 37°32' E 003°49'814.4
2017-May-04 23:59N 37°32' E 003°59'714.6
2017-May-04 23:30N 37°33' E 004°08'714.7
2017-May-04 23:00N 37°33' E 004°17'1114.7
2017-May-04 22:14N 37°33' E 004°31'314.7
2017-May-04 22:00N 37°33' E 004°36'914.7
2017-May-04 21:24N 37°33' E 004°47'614.5
2017-May-04 21:00N 37°33' E 004°54'2614.4
2017-May-04 19:11N 37°34' E 005°27'314.5
2017-May-04 19:00N 37°34' E 005°30'24514.4
2017-May-04 02:01N 37°39' E 010°40'014.8
2017-May-04 02:00N 37°39' E 010°40'1514.0
2017-May-04 00:57N 37°37' E 010°59'614.4
2017-May-04 00:30N 37°34' E 011°06'714.4
2017-May-04 00:00N 37°32' E 011°15'714.8
2017-May-03 23:30N 37°29' E 011°23'714.7
2017-May-03 23:00N 37°26' E 011°31'814.8
2017-May-03 22:30N 37°22' E 011°39'714.5
2017-May-03 22:00N 37°19' E 011°48'714.8
2017-May-03 21:30N 37°16' E 011°56'714.6
2017-May-03 21:00N 37°13' E 012°05'714.4
2017-May-03 20:30N 37°10' E 012°13'714.2
2017-May-03 20:00N 37°07' E 012°21'713.7
2017-May-03 19:30N 37°04' E 012°28'713.8
2017-May-03 19:01N 37°01' E 012°36'713.8
2017-May-03 18:30N 36°58' E 012°44'713.7
2017-May-03 18:00N 36°55' E 012°52'713.8
2017-May-03 17:30N 36°52' E 012°60'713.8
2017-May-03 17:00N 36°49' E 013°08'714.0
2017-May-03 16:30N 36°46' E 013°15'713.8
2017-May-03 16:00N 36°43' E 013°23'714.4
2017-May-03 15:30N 36°40' E 013°31'714.3
2017-May-03 15:01N 36°37' E 013°39'1414.0
2017-May-03 14:00N 36°32' E 013°55'713.9
2017-May-03 13:30N 36°30' E 014°04'714.0
2017-May-03 13:00N 36°29' E 014°12'713.7
2017-May-03 12:29N 36°29' E 014°21'713.7
2017-May-03 12:00N 36°29' E 014°29'713.7
2017-May-03 11:30N 36°28' E 014°38'714.0
2017-May-03 10:59N 36°27' E 014°47'713.8
2017-May-03 10:30N 36°27' E 014°55'813.8
2017-May-03 09:58N 36°27' E 015°04'  

Dump ship's entire track history